Time;durP1;ratioP1;P1;durP2;ratioP2;P2;SDS_P1;SDS_P2;PMS_P1;PMS_P2;Temp;Humidity;BMP_temperature;BMP_pressure;BME280_temperature;BME280_humidity;BME280_pressure;Samples;Min_cycle;Max_cycle;Signal;HPM_P1;HPM_P2
2022/03/14 00:02:02;;;;;;;18.73;11.80;;;9.00;62.40;;;;;;5107649;28;20031;-70
2022/03/14 00:04:29;;;;;;;15.45;11.05;;;9.00;62.70;;;;;;5091537;28;20572;-70
2022/03/14 00:06:55;;;;;;;16.65;11.65;;;8.90;62.60;;;;;;5090349;28;20039;-69
2022/03/14 00:09:21;;;;;;;16.45;10.95;;;8.90;62.60;;;;;;5097445;28;20055;-70
2022/03/14 00:11:47;;;;;;;15.10;10.48;;;8.80;63.50;;;;;;5125136;27;20075;-71
2022/03/14 00:14:13;;;;;;;15.07;10.17;;;8.80;63.30;;;;;;5092270;28;20074;-70
2022/03/14 00:16:43;;;;;;;17.45;11.30;;;8.80;64.00;;;;;;5108097;27;20035;-70
2022/03/14 00:19:09;;;;;;;16.23;10.88;;;8.80;63.60;;;;;;5125707;27;20440;-70
2022/03/14 00:21:38;;;;;;;14.38;10.68;;;8.80;64.20;;;;;;5107106;28;20047;-71
2022/03/14 00:24:06;;;;;;;16.88;11.93;;;8.80;64.60;;;;;;5088072;28;20046;-70
2022/03/14 00:26:33;;;;;;;15.63;10.93;;;8.80;64.50;;;;;;5121040;27;20043;-70
2022/03/14 00:28:59;;;;;;;13.00;10.00;;;8.80;64.50;;;;;;5104868;28;20108;-69
2022/03/14 00:31:25;;;;;;;14.50;10.70;;;8.80;65.50;;;;;;5122594;27;20047;-70
2022/03/14 00:33:51;;;;;;;12.70;9.30;;;8.70;66.10;;;;;;5106270;28;20126;-70
2022/03/14 00:36:18;;;;;;;12.77;9.15;;;8.70;65.30;;;;;;5085929;28;20518;-70
2022/03/14 00:38:43;;;;;;;13.95;9.43;;;8.70;65.90;;;;;;5087620;28;20043;-69
2022/03/14 00:41:16;;;;;;;13.43;9.67;;;8.70;66.20;;;;;;5074486;28;20042;-70
2022/03/14 00:43:42;;;;;;;13.15;9.35;;;8.60;66.70;;;;;;5094580;28;20039;-70
2022/03/14 00:46:08;;;;;;;12.85;8.80;;;8.60;66.80;;;;;;5089192;28;20111;-70
2022/03/14 00:48:35;;;;;;;11.23;8.85;;;8.60;67.00;;;;;;5095432;28;20123;-70
2022/03/14 00:51:02;;;;;;;10.35;8.10;;;8.60;67.30;;;;;;5099488;28;20047;-70
2022/03/14 00:53:29;;;;;;;11.25;8.05;;;8.60;67.20;;;;;;5105943;28;20043;-69
2022/03/14 00:55:54;;;;;;;11.27;7.75;;;8.60;67.20;;;;;;5122063;27;20047;-69
2022/03/14 00:58:20;;;;;;;10.97;7.83;;;8.70;67.10;;;;;;5105731;28;20036;-69
2022/03/14 01:00:49;;;;;;;10.83;6.80;;;8.70;67.40;;;;;;5106690;28;20039;-70
2022/03/14 01:03:15;;;;;;;9.40;7.28;;;8.70;67.40;;;;;;5088022;28;20684;-69
2022/03/14 01:05:41;;;;;;;9.68;7.45;;;8.70;67.30;;;;;;5087209;28;20047;-70
2022/03/14 01:08:08;;;;;;;13.30;8.00;;;8.60;67.30;;;;;;5103858;28;20045;-69
2022/03/14 01:10:34;;;;;;;11.10;7.55;;;8.50;67.60;;;;;;5122558;28;20044;-69
2022/03/14 01:13:03;;;;;;;10.25;7.15;;;8.50;67.80;;;;;;5105603;28;20046;-69
2022/03/14 01:15:29;;;;;;;10.90;7.35;;;8.40;67.80;;;;;;5105552;28;20044;-69
2022/03/14 01:17:56;;;;;;;9.88;6.97;;;8.40;68.60;;;;;;5087222;28;20139;-69
2022/03/14 01:20:22;;;;;;;8.10;6.72;;;8.40;68.70;;;;;;5072398;28;20118;-69
2022/03/14 01:22:47;;;;;;;9.87;7.60;;;8.40;68.80;;;;;;5093974;27;20118;-69
2022/03/14 01:25:13;;;;;;;10.43;6.87;;;8.40;68.70;;;;;;5105755;28;20476;-69
2022/03/14 01:27:39;;;;;;;10.53;7.70;;;8.40;68.80;;;;;;5123977;27;20062;-69
2022/03/14 01:30:06;;;;;;;9.47;7.67;;;8.40;68.70;;;;;;5074008;28;20055;-69
2022/03/14 01:32:32;;;;;;;10.55;7.70;;;8.40;69.10;;;;;;5104549;27;20047;-69
2022/03/14 01:34:57;;;;;;;10.60;7.83;;;8.40;69.00;;;;;;5076219;28;20043;-69
2022/03/14 01:37:23;;;;;;;10.90;8.40;;;8.40;68.90;;;;;;5090759;28;20043;-69
2022/03/14 01:39:49;;;;;;;10.87;8.57;;;8.40;68.90;;;;;;5090241;28;20051;-69
2022/03/14 01:42:19;;;;;;;10.90;8.10;;;8.30;68.70;;;;;;5089713;27;20036;-69
2022/03/14 01:44:47;;;;;;;13.57;9.77;;;8.30;68.90;;;;;;5103732;28;20035;-69
2022/03/14 01:47:14;;;;;;;10.75;8.30;;;8.30;69.00;;;;;;5108991;28;20126;-69
2022/03/14 01:49:41;;;;;;;11.57;9.02;;;8.30;69.20;;;;;;5085580;28;20035;-69
2022/03/14 01:52:08;;;;;;;14.00;10.55;;;8.30;69.10;;;;;;5069168;28;20311;-69
2022/03/14 01:54:34;;;;;;;15.57;11.02;;;8.30;69.20;;;;;;5089045;28;20072;-69
2022/03/14 01:57:00;;;;;;;15.50;12.10;;;8.30;69.00;;;;;;5109547;27;20039;-69
2022/03/14 01:59:29;;;;;;;17.17;11.85;;;8.30;69.00;;;;;;5091155;28;20487;-69
2022/03/14 02:01:56;;;;;;;18.17;13.32;;;8.20;68.90;;;;;;5061509;28;20108;-69
2022/03/14 02:04:22;;;;;;;17.58;13.30;;;8.20;69.00;;;;;;5084384;28;20052;-69
2022/03/14 02:06:49;;;;;;;20.88;14.52;;;8.20;68.90;;;;;;5091446;28;20127;-69
2022/03/14 02:09:15;;;;;;;20.75;15.95;;;8.20;69.00;;;;;;5075448;28;20135;-69
2022/03/14 02:11:56;;;;;;;21.90;15.70;;;8.10;68.80;;;;;;5075112;28;20162;-69
2022/03/14 02:14:23;;;;;;;21.55;15.65;;;8.10;68.90;;;;;;5091284;28;20044;-69
2022/03/14 02:16:49;;;;;;;21.70;16.48;;;8.10;68.70;;;;;;5106853;28;20040;-69
2022/03/14 02:19:15;;;;;;;23.58;16.65;;;8.10;68.70;;;;;;5091381;28;20123;-69
2022/03/14 02:21:41;;;;;;;24.25;16.90;;;8.10;68.80;;;;;;5105782;28;20063;-69
2022/03/14 02:24:07;;;;;;;22.47;16.80;;;8.10;68.80;;;;;;5091228;28;20036;-69
2022/03/14 02:26:40;;;;;;;23.17;16.92;;;8.10;68.80;;;;;;5113788;27;20032;-69
2022/03/14 02:29:10;;;;;;;22.88;15.68;;;8.10;68.80;;;;;;5097331;28;20040;-69
2022/03/14 02:31:37;;;;;;;20.58;15.00;;;8.10;68.70;;;;;;5095457;28;20655;-69
2022/03/14 02:34:07;;;;;;;21.73;15.75;;;8.00;68.70;;;;;;5094302;28;20100;-69
2022/03/14 02:36:37;;;;;;;24.55;16.52;;;8.00;68.80;;;;;;5108181;28;20040;-69
2022/03/14 02:39:03;;;;;;;22.27;16.10;;;8.00;68.70;;;;;;5107213;27;20078;-69
2022/03/14 02:41:28;;;;;;;27.07;16.13;;;8.00;68.80;;;;;;5107276;28;20086;-69
2022/03/14 02:43:55;;;;;;;23.63;15.80;;;8.00;68.80;;;;;;5091588;27;20051;-69
2022/03/14 02:46:21;;;;;;;20.73;15.40;;;8.00;68.90;;;;;;5092237;28;20496;-69
2022/03/14 02:48:47;;;;;;;22.67;16.23;;;8.00;68.70;;;;;;5088455;28;20051;-69
2022/03/14 02:51:12;;;;;;;23.83;16.30;;;8.00;68.70;;;;;;5119135;27;20047;-69
2022/03/14 02:53:38;;;;;;;21.87;15.37;;;8.00;68.80;;;;;;5090220;28;20317;-69
2022/03/14 02:56:04;;;;;;;20.13;14.97;;;8.00;68.80;;;;;;5062259;28;20220;-69
2022/03/14 02:58:32;;;;;;;19.05;14.07;;;8.00;69.00;;;;;;5077261;27;20075;-69
2022/03/14 03:00:58;;;;;;;21.38;14.95;;;8.00;68.80;;;;;;5100257;27;20063;-69
2022/03/14 03:03:24;;;;;;;23.52;15.68;;;8.00;68.90;;;;;;5106144;28;20674;-69
2022/03/14 03:05:50;;;;;;;20.97;14.20;;;8.00;69.00;;;;;;5089434;28;20044;-69
2022/03/14 03:08:16;;;;;;;17.97;13.77;;;7.90;69.20;;;;;;5103386;28;20046;-69
2022/03/14 03:10:42;;;;;;;17.30;13.30;;;7.90;69.20;;;;;;5089422;28;20122;-69
2022/03/14 03:13:10;;;;;;;18.43;13.43;;;7.90;69.40;;;;;;5088800;28;20563;-69
2022/03/14 03:15:37;;;;;;;18.80;12.38;;;7.90;69.60;;;;;;5089856;28;20042;-69
2022/03/14 03:18:04;;;;;;;19.50;12.73;;;7.90;69.70;;;;;;5077285;28;20055;-69
2022/03/14 03:20:30;;;;;;;16.42;11.90;;;7.90;69.80;;;;;;5101231;28;20160;-69
2022/03/14 03:22:56;;;;;;;16.37;12.30;;;8.00;69.90;;;;;;5123689;27;20078;-69
2022/03/14 03:25:22;;;;;;;15.13;11.07;;;7.90;70.20;;;;;;5123978;27;20088;-69
2022/03/14 03:27:48;;;;;;;15.47;11.03;;;8.00;70.50;;;;;;5107748;27;20101;-69
2022/03/14 03:30:14;;;;;;;13.77;10.20;;;8.00;70.60;;;;;;5135305;27;20649;-70
2022/03/14 03:32:40;;;;;;;13.07;9.88;;;8.00;70.50;;;;;;5124506;27;20043;-69
2022/03/14 03:35:06;;;;;;;13.53;9.90;;;8.00;70.80;;;;;;5096248;28;20396;-69
2022/03/14 03:37:32;;;;;;;13.17;9.43;;;8.00;71.30;;;;;;5105692;28;20125;-69
2022/03/14 03:39:58;;;;;;;11.60;9.13;;;8.00;71.30;;;;;;5089163;28;20788;-70
2022/03/14 03:42:23;;;;;;;12.07;9.40;;;8.00;71.50;;;;;;5071927;28;20487;-69
2022/03/14 03:44:49;;;;;;;10.67;8.17;;;8.00;70.90;;;;;;5073688;28;20514;-69
2022/03/14 03:47:15;;;;;;;10.13;7.37;;;8.00;71.20;;;;;;5123388;27;20635;-69
2022/03/14 03:49:40;;;;;;;10.13;7.70;;;8.10;71.40;;;;;;5104999;28;20108;-70
2022/03/14 03:52:07;;;;;;;9.47;6.97;;;8.00;71.10;;;;;;5071414;28;20043;-69
2022/03/14 03:54:33;;;;;;;9.55;6.80;;;8.10;71.10;;;;;;5067769;28;20557;-69
2022/03/14 03:56:59;;;;;;;7.55;6.13;;;8.10;71.10;;;;;;5105650;28;20044;-69
2022/03/14 03:59:25;;;;;;;7.43;5.80;;;8.10;71.20;;;;;;5105956;28;20154;-69
2022/03/14 04:01:52;;;;;;;9.05;6.40;;;8.10;71.20;;;;;;5107101;28;20047;-69
2022/03/14 04:04:18;;;;;;;8.40;5.22;;;8.20;71.10;;;;;;5105665;28;20515;-70
2022/03/14 04:06:44;;;;;;;7.25;5.10;;;8.20;71.30;;;;;;5088277;27;20638;-70
2022/03/14 04:09:10;;;;;;;7.40;4.97;;;8.20;71.30;;;;;;5108806;27;20031;-70
2022/03/14 04:11:37;;;;;;;5.18;4.32;;;8.20;71.50;;;;;;5072058;28;20044;-70
2022/03/14 04:14:03;;;;;;;5.07;4.00;;;8.20;71.20;;;;;;5088819;28;20035;-70
2022/03/14 04:16:29;;;;;;;4.65;3.80;;;8.30;71.30;;;;;;5105215;28;20569;-70
2022/03/14 04:18:56;;;;;;;6.50;4.07;;;8.30;71.10;;;;;;5072036;28;20457;-70
2022/03/14 04:21:23;;;;;;;4.97;3.75;;;8.40;71.30;;;;;;5105777;28;20042;-70
2022/03/14 04:23:48;;;;;;;5.25;3.97;;;8.40;71.00;;;;;;5106604;28;20503;-70
2022/03/14 04:26:14;;;;;;;5.40;3.97;;;8.40;71.30;;;;;;5104734;28;20039;-70
2022/03/14 04:28:41;;;;;;;5.03;3.63;;;8.50;71.10;;;;;;5086087;28;20292;-69
2022/03/14 04:31:08;;;;;;;5.05;3.47;;;8.50;71.20;;;;;;5103589;28;20101;-69
2022/03/14 04:33:34;;;;;;;4.35;3.65;;;8.50;71.30;;;;;;5095157;28;20043;-69
2022/03/14 04:36:00;;;;;;;6.40;4.07;;;8.50;71.30;;;;;;5101108;28;20094;-69
2022/03/14 04:38:28;;;;;;;4.32;3.60;;;8.50;71.20;;;;;;5081592;28;20500;-69
2022/03/14 04:40:53;;;;;;;4.18;3.63;;;8.50;71.10;;;;;;5104715;28;20127;-69
2022/03/14 04:43:21;;;;;;;4.63;3.70;;;8.50;71.40;;;;;;5114061;28;20131;-69
2022/03/14 04:45:48;;;;;;;4.53;3.33;;;8.50;71.30;;;;;;5105232;28;20039;-69
2022/03/14 04:48:14;;;;;;;4.72;3.40;;;8.50;71.40;;;;;;5081001;28;20053;-69
2022/03/14 04:50:42;;;;;;;4.18;3.03;;;8.60;71.10;;;;;;5100694;28;20050;-69
2022/03/14 04:53:08;;;;;;;3.80;2.85;;;8.60;71.30;;;;;;5087055;28;20043;-69
2022/03/14 04:55:35;;;;;;;4.65;3.00;;;8.60;71.50;;;;;;5077684;28;20044;-69
2022/03/14 04:58:02;;;;;;;3.72;2.70;;;8.60;71.80;;;;;;5091191;28;20044;-69
2022/03/14 05:00:29;;;;;;;3.35;2.50;;;8.60;71.50;;;;;;5072271;27;20032;-69
2022/03/14 05:03:03;;;;;;;3.35;2.38;;;8.60;71.60;;;;;;5108289;28;20054;-69
2022/03/14 05:05:29;;;;;;;3.72;2.67;;;8.60;71.50;;;;;;5089520;28;20047;-69
2022/03/14 05:07:55;;;;;;;4.00;2.47;;;8.60;71.30;;;;;;5108833;28;20055;-69
2022/03/14 05:10:21;;;;;;;2.75;2.10;;;8.60;71.30;;;;;;5126752;27;20043;-69
2022/03/14 05:12:48;;;;;;;2.80;2.50;;;8.60;71.30;;;;;;5129515;27;20040;-69
2022/03/14 05:15:17;;;;;;;3.42;2.80;;;8.60;71.30;;;;;;5106929;28;20453;-69
2022/03/14 05:17:44;;;;;;;4.18;2.58;;;8.60;71.50;;;;;;5074574;28;20051;-69
2022/03/14 05:20:10;;;;;;;3.97;2.22;;;8.60;71.50;;;;;;5085415;28;20054;-69
2022/03/14 05:22:48;;;;;;;3.20;2.42;;;8.60;71.70;;;;;;5109349;28;20040;-69
2022/03/14 05:25:16;;;;;;;4.63;2.33;;;8.60;71.80;;;;;;5107321;28;20036;-70
2022/03/14 05:27:41;;;;;;;3.08;2.40;;;8.50;71.80;;;;;;5102147;28;20085;-70
2022/03/14 05:30:08;;;;;;;3.87;2.63;;;8.50;72.00;;;;;;5106841;28;20039;-70
2022/03/14 05:32:39;;;;;;;4.18;2.60;;;8.50;71.80;;;;;;5087249;27;20047;-70
2022/03/14 05:35:05;;;;;;;3.80;2.22;;;8.50;72.20;;;;;;5054267;28;20097;-69
2022/03/14 05:37:31;;;;;;;3.55;2.60;;;8.50;72.10;;;;;;5108005;27;20092;-70
2022/03/14 05:39:57;;;;;;;3.57;2.40;;;8.50;72.20;;;;;;5084800;28;20037;-69
2022/03/14 05:42:23;;;;;;;3.73;2.70;;;8.50;72.20;;;;;;5092052;27;20100;-69
2022/03/14 05:44:49;;;;;;;3.97;2.67;;;8.50;72.40;;;;;;5103219;28;20075;-69
2022/03/14 05:47:15;;;;;;;3.13;2.10;;;8.50;72.20;;;;;;5091401;28;20075;-69
2022/03/14 05:49:40;;;;;;;3.40;2.60;;;8.50;72.50;;;;;;5106158;28;20044;-69
2022/03/14 05:52:07;;;;;;;3.73;2.53;;;8.50;72.60;;;;;;5094288;28;20425;-69
2022/03/14 05:54:34;;;;;;;4.28;2.55;;;8.50;72.50;;;;;;5076913;28;20094;-69
2022/03/14 05:57:00;;;;;;;4.68;2.88;;;8.50;72.60;;;;;;5107485;28;20113;-69
2022/03/14 05:59:26;;;;;;;3.42;2.72;;;8.50;72.50;;;;;;5088253;28;20040;-69
2022/03/14 06:01:52;;;;;;;4.05;2.65;;;8.50;72.60;;;;;;5087666;28;20407;-69
2022/03/14 06:04:18;;;;;;;4.20;2.70;;;8.50;72.70;;;;;;5087182;28;20055;-69
2022/03/14 06:06:44;;;;;;;4.27;2.67;;;8.50;72.90;;;;;;5092106;28;20050;-69
2022/03/14 06:09:10;;;;;;;3.60;2.85;;;8.50;73.00;;;;;;5100825;28;20353;-69
2022/03/14 06:11:38;;;;;;;3.43;2.60;;;8.50;73.00;;;;;;5059385;28;20371;-69
2022/03/14 06:14:05;;;;;;;4.03;2.65;;;8.50;73.10;;;;;;5091507;28;20038;-69
2022/03/14 06:16:31;;;;;;;3.85;3.17;;;8.50;73.10;;;;;;5089369;28;20035;-69
2022/03/14 06:18:57;;;;;;;3.70;2.80;;;8.50;73.20;;;;;;5076225;28;20055;-69
2022/03/14 06:21:22;;;;;;;4.77;3.00;;;8.50;73.10;;;;;;5102575;28;20460;-69
2022/03/14 06:23:48;;;;;;;4.00;2.93;;;8.60;72.90;;;;;;5089712;28;20035;-69
2022/03/14 06:26:14;;;;;;;4.53;2.93;;;8.60;73.30;;;;;;5071916;28;20143;-69
2022/03/14 06:28:41;;;;;;;4.35;3.15;;;8.60;73.40;;;;;;5094967;28;20532;-69
2022/03/14 06:31:09;;;;;;;4.03;3.35;;;8.60;73.40;;;;;;5074761;28;20039;-69
2022/03/14 06:33:36;;;;;;;4.22;3.20;;;8.70;73.40;;;;;;5072986;28;20051;-69
2022/03/14 06:36:02;;;;;;;3.97;2.85;;;8.70;73.20;;;;;;5089682;28;20043;-70
2022/03/14 06:38:27;;;;;;;4.00;3.25;;;8.70;73.70;;;;;;5082016;28;20040;-70
2022/03/14 06:40:56;;;;;;;4.63;3.27;;;8.70;73.60;;;;;;5105868;28;20069;-69
2022/03/14 06:43:22;;;;;;;4.13;3.25;;;8.70;73.70;;;;;;5103108;28;20344;-69
2022/03/14 06:45:48;;;;;;;5.85;3.55;;;8.70;73.70;;;;;;5090861;28;20047;-69
2022/03/14 06:48:14;;;;;;;3.40;3.10;;;8.70;74.10;;;;;;5051322;28;21070;-69
2022/03/14 06:50:40;;;;;;;5.17;3.40;;;8.70;73.90;;;;;;5099176;28;20567;-69
2022/03/14 06:53:05;;;;;;;4.70;3.53;;;8.70;73.90;;;;;;5069214;28;20047;-69
2022/03/14 06:55:31;;;;;;;5.50;3.50;;;8.70;74.00;;;;;;5078882;28;20043;-69
2022/03/14 06:57:57;;;;;;;6.60;4.10;;;8.70;73.90;;;;;;5103482;28;20040;-69
2022/03/14 07:00:23;;;;;;;5.10;3.77;;;8.80;73.70;;;;;;5091186;28;20046;-69
2022/03/14 07:02:49;;;;;;;5.10;4.00;;;8.80;73.80;;;;;;5104351;28;20368;-70
2022/03/14 07:05:20;;;;;;;5.77;4.67;;;8.70;73.90;;;;;;5048510;28;1118228;-70
2022/03/14 07:07:47;;;;;;;5.78;4.75;;;8.80;73.80;;;;;;5105313;28;20044;-70
2022/03/14 07:10:13;;;;;;;7.68;5.32;;;8.70;74.20;;;;;;5105785;28;20045;-69
2022/03/14 07:12:45;;;;;;;6.45;5.47;;;8.80;74.20;;;;;;5089512;28;20046;-70
2022/03/14 07:15:25;;;;;;;7.65;6.18;;;8.80;74.10;;;;;;5088871;28;20777;-70
2022/03/14 07:17:51;;;;;;;7.07;5.72;;;8.80;74.20;;;;;;5098322;28;20036;-70
2022/03/14 07:20:18;;;;;;;8.50;7.22;;;8.80;74.20;;;;;;5048413;28;20126;-70
2022/03/14 07:22:53;;;;;;;8.05;6.60;;;8.80;74.50;;;;;;5067283;28;20047;-70
2022/03/14 07:25:20;;;;;;;8.38;7.00;;;8.80;74.70;;;;;;5105967;27;20085;-70
2022/03/14 07:27:46;;;;;;;9.77;7.47;;;8.80;75.40;;;;;;5123496;27;20495;-70
2022/03/14 07:30:14;;;;;;;8.93;7.40;;;8.80;75.20;;;;;;5104547;28;20051;-70
2022/03/14 07:32:40;;;;;;;8.80;7.10;;;8.80;75.40;;;;;;5051368;28;20048;-69
2022/03/14 07:35:07;;;;;;;9.90;7.50;;;8.80;75.90;;;;;;5074345;28;20043;-69
2022/03/14 07:37:32;;;;;;;10.52;8.73;;;8.80;76.20;;;;;;5083256;28;20422;-69
2022/03/14 07:39:58;;;;;;;10.87;9.07;;;8.80;76.20;;;;;;5075705;28;20046;-69
2022/03/14 07:42:24;;;;;;;11.67;9.20;;;8.80;76.20;;;;;;5069417;27;20124;-69
2022/03/14 07:44:50;;;;;;;12.18;8.95;;;8.90;76.30;;;;;;5105011;28;20096;-69
2022/03/14 07:47:16;;;;;;;11.73;9.13;;;8.90;76.50;;;;;;5072157;28;20043;-69
2022/03/14 07:49:41;;;;;;;11.50;9.53;;;8.90;76.40;;;;;;5075709;28;20043;-69
2022/03/14 07:52:07;;;;;;;12.90;10.40;;;8.90;76.40;;;;;;5086560;28;20675;-69
2022/03/14 07:54:33;;;;;;;11.77;10.13;;;9.00;76.70;;;;;;5075597;28;20050;-69
2022/03/14 07:56:59;;;;;;;13.02;10.75;;;9.00;76.40;;;;;;5120641;27;20240;-69
2022/03/14 07:59:25;;;;;;;14.53;11.37;;;9.00;77.00;;;;;;5065335;28;20039;-69
2022/03/14 08:01:51;;;;;;;13.73;11.30;;;9.00;76.40;;;;;;5087291;27;20124;-69
2022/03/14 08:04:16;;;;;;;16.83;13.23;;;8.90;77.60;;;;;;5086562;28;20056;-69
2022/03/14 08:06:42;;;;;;;18.57;14.70;;;8.90;78.20;;;;;;5082362;28;20046;-69
2022/03/14 08:09:11;;;;;;;21.50;15.33;;;8.80;78.90;;;;;;5080128;28;20035;-69
2022/03/14 08:11:39;;;;;;;19.98;14.77;;;8.70;79.30;;;;;;5128790;27;20403;-69
2022/03/14 08:14:05;;;;;;;20.67;15.43;;;8.70;79.50;;;;;;5094371;28;20047;-69
2022/03/14 08:16:31;;;;;;;22.90;16.58;;;8.60;80.10;;;;;;5123253;27;20419;-69
2022/03/14 08:18:56;;;;;;;25.47;17.23;;;8.60;81.00;;;;;;5104084;28;20036;-69
2022/03/14 08:21:23;;;;;;;24.13;16.87;;;8.60;81.60;;;;;;5088201;28;20488;-69
2022/03/14 08:23:50;;;;;;;23.50;17.92;;;8.60;81.90;;;;;;5107956;27;20047;-70
2022/03/14 08:26:17;;;;;;;23.05;17.38;;;8.60;82.00;;;;;;5084865;28;20071;-70
2022/03/14 08:28:44;;;;;;;23.73;17.63;;;8.70;81.90;;;;;;5093991;28;20092;-70
2022/03/14 08:31:11;;;;;;;24.05;17.65;;;8.70;82.20;;;;;;5073420;28;20508;-70
2022/03/14 08:33:40;;;;;;;28.65;19.60;;;8.80;82.30;;;;;;5080402;28;20047;-70
2022/03/14 08:36:06;;;;;;;29.88;19.70;;;8.70;82.10;;;;;;5090783;28;20059;-70
2022/03/14 08:38:32;;;;;;;30.85;20.70;;;8.70;82.10;;;;;;5103075;28;20122;-70
2022/03/14 08:40:58;;;;;;;32.87;21.83;;;8.70;82.50;;;;;;5087284;28;20169;-70
2022/03/14 08:43:24;;;;;;;38.50;24.13;;;8.60;82.20;;;;;;5104186;28;20278;-70
2022/03/14 08:45:50;;;;;;;40.13;23.50;;;8.60;82.10;;;;;;5120769;28;20510;-70
2022/03/14 08:48:16;;;;;;;40.37;24.27;;;8.60;82.20;;;;;;5073799;28;20088;-70
2022/03/14 08:50:41;;;;;;;35.63;22.33;;;8.70;82.00;;;;;;5087313;28;20289;-70
2022/03/14 08:53:08;;;;;;;36.63;21.70;;;8.70;81.50;;;;;;5107237;28;20031;-69
2022/03/14 08:55:34;;;;;;;36.75;21.42;;;8.70;81.00;;;;;;5091456;28;20043;-69
2022/03/14 08:58:00;;;;;;;40.40;22.43;;;8.70;80.90;;;;;;5102882;28;20046;-69
2022/03/14 09:00:27;;;;;;;35.28;20.02;;;8.70;81.20;;;;;;5082838;28;20289;-70
2022/03/14 09:02:54;;;;;;;35.80;19.85;;;8.70;81.10;;;;;;5099241;28;20040;-70
2022/03/14 09:05:21;;;;;;;28.30;16.15;;;8.70;81.00;;;;;;5097080;28;20200;-70
2022/03/14 09:07:47;;;;;;;29.58;16.95;;;8.80;80.60;;;;;;5118291;27;20044;-70
2022/03/14 09:10:14;;;;;;;29.63;15.40;;;8.80;80.50;;;;;;5101235;28;20051;-70
2022/03/14 09:12:42;;;;;;;26.88;14.70;;;8.90;80.40;;;;;;5118232;28;20096;-69
2022/03/14 09:15:12;;;;;;;30.55;14.07;;;8.90;80.10;;;;;;5096670;28;20040;-69
2022/03/14 09:17:46;;;;;;;30.15;14.98;;;9.00;79.90;;;;;;5092592;28;20048;-70
2022/03/14 09:20:15;;;;;;;27.77;14.80;;;9.10;79.60;;;;;;5087051;28;20047;-70
2022/03/14 09:22:43;;;;;;;23.20;12.65;;;9.10;79.50;;;;;;5095756;28;20040;-70
2022/03/14 09:25:09;;;;;;;22.95;12.00;;;9.30;79.40;;;;;;5096005;28;20513;-70
2022/03/14 09:27:35;;;;;;;24.50;11.30;;;9.40;79.00;;;;;;5082970;28;20681;-70
2022/03/14 09:30:00;;;;;;;18.87;9.70;;;9.50;78.70;;;;;;5073066;28;20043;-70
2022/03/14 09:32:26;;;;;;;17.50;9.07;;;9.60;78.00;;;;;;5075057;28;20402;-70
2022/03/14 09:34:52;;;;;;;18.67;9.67;;;9.60;77.50;;;;;;5083504;28;20065;-70
2022/03/14 09:37:17;;;;;;;18.10;8.27;;;9.70;77.40;;;;;;5089650;28;20385;-70
2022/03/14 09:39:43;;;;;;;14.37;7.03;;;9.80;77.00;;;;;;5082699;28;20043;-70
2022/03/14 09:42:11;;;;;;;15.63;6.90;;;9.90;76.50;;;;;;5086300;28;20040;-70
2022/03/14 09:44:40;;;;;;;11.43;5.93;;;10.00;75.90;;;;;;5091223;28;20042;-70
2022/03/14 09:47:06;;;;;;;14.00;6.00;;;10.10;75.40;;;;;;5094246;28;20381;-70
2022/03/14 09:49:35;;;;;;;15.50;6.50;;;10.10;74.90;;;;;;5083844;28;20611;-70
2022/03/14 09:52:01;;;;;;;16.17;5.88;;;10.20;74.30;;;;;;5093848;28;20125;-70
2022/03/14 09:54:28;;;;;;;11.27;4.60;;;10.30;74.10;;;;;;5093181;27;20043;-70
2022/03/14 09:56:56;;;;;;;13.43;4.60;;;10.30;73.40;;;;;;5126980;27;20047;-70
2022/03/14 09:59:22;;;;;;;11.40;4.68;;;10.40;73.30;;;;;;5103149;28;20050;-70
2022/03/14 10:01:48;;;;;;;10.90;4.45;;;10.30;73.30;;;;;;5097069;27;20085;-70
2022/03/14 10:04:14;;;;;;;11.13;3.90;;;10.40;73.20;;;;;;5080063;28;20048;-70
2022/03/14 10:06:40;;;;;;;11.53;4.30;;;10.40;72.50;;;;;;5058629;28;20067;-70
2022/03/14 10:09:07;;;;;;;11.75;4.68;;;10.30;72.50;;;;;;5039524;28;20102;-70
2022/03/14 10:11:32;;;;;;;14.93;5.30;;;10.20;72.80;;;;;;5058699;28;20044;-70
2022/03/14 10:13:58;;;;;;;13.13;5.37;;;10.20;73.00;;;;;;5059642;28;20051;-70
2022/03/14 10:16:27;;;;;;;14.33;5.47;;;10.20;73.30;;;;;;5045796;28;20159;-70
2022/03/14 10:18:55;;;;;;;17.92;5.97;;;10.20;73.30;;;;;;5054806;28;20603;-70
2022/03/14 10:21:31;;;;;;;14.25;5.68;;;10.10;73.80;;;;;;5059173;28;20047;-70
2022/03/14 10:24:06;;;;;;;16.42;6.18;;;10.10;73.90;;;;;;5100099;28;20033;-70
2022/03/14 10:26:33;;;;;;;16.00;6.03;;;10.00;74.00;;;;;;5080145;28;20047;-70
2022/03/14 10:29:00;;;;;;;13.27;6.43;;;10.00;74.20;;;;;;5058029;28;20051;-70
2022/03/14 10:31:37;;;;;;;13.77;7.57;;;10.00;74.60;;;;;;5062432;28;20044;-70
2022/03/14 10:34:10;;;;;;;15.15;7.55;;;10.00;74.80;;;;;;5083615;28;20064;-70
2022/03/14 10:36:45;;;;;;;16.10;8.55;;;10.10;74.50;;;;;;5049348;28;20044;-70
2022/03/14 10:39:21;;;;;;;;;;;10.20;74.10;;;;;;5085917;28;20497;-70
2022/03/14 10:42:08;;;;;;;18.15;10.25;;;10.30;74.00;;;;;;5077276;28;19920;-70
2022/03/14 10:44:39;;;;;;;18.95;9.60;;;10.30;74.40;;;;;;5061198;28;20037;-70
2022/03/14 10:47:09;;;;;;;18.42;8.82;;;10.30;73.90;;;;;;5073389;28;20048;-70
2022/03/14 10:49:37;;;;;;;18.20;8.68;;;10.30;73.60;;;;;;5100934;27;20134;-70
2022/03/14 10:52:06;;;;;;;21.35;9.30;;;10.30;73.70;;;;;;5098385;28;20371;-70
2022/03/14 10:54:35;;;;;;;20.17;10.32;;;10.20;74.00;;;;;;5089829;28;20044;-70
2022/03/14 10:57:05;;;;;;;20.55;10.63;;;10.20;74.00;;;;;;5062322;28;20135;-70
2022/03/14 10:59:38;;;;;;;21.17;10.38;;;10.20;74.10;;;;;;5066472;28;20166;-70
2022/03/14 11:02:12;;;;;;;21.67;10.52;;;10.30;74.20;;;;;;5071418;28;20048;-70
2022/03/14 11:04:52;;;;;;;24.45;12.48;;;10.30;74.30;;;;;;5070449;28;20055;-70
2022/03/14 11:07:20;;;;;;;22.27;12.18;;;10.30;74.40;;;;;;5103970;27;20047;-70
2022/03/14 11:09:56;;;;;;;24.15;12.38;;;10.40;74.10;;;;;;5075503;28;20407;-70
2022/03/14 11:12:23;;;;;;;22.10;12.60;;;10.40;74.00;;;;;;5056672;28;20082;-70
2022/03/14 11:15:00;;;;;;;21.63;12.25;;;10.50;73.80;;;;;;5076329;28;20037;-70
2022/03/14 11:17:34;;;;;;;22.02;11.82;;;10.60;73.80;;;;;;5065672;28;20164;-70
2022/03/14 11:20:00;;;;;;;22.92;11.98;;;10.70;73.80;;;;;;5041262;28;20528;-70
2022/03/14 11:22:27;;;;;;;26.30;12.55;;;10.80;73.80;;;;;;5081882;28;20563;-70
2022/03/14 11:24:55;;;;;;;25.25;12.45;;;10.90;73.20;;;;;;5048068;28;20044;-70
2022/03/14 11:27:28;;;;;;;22.45;11.73;;;11.00;73.00;;;;;;5063969;28;20045;-70
2022/03/14 11:30:14;;;;;;;22.45;12.35;;;11.00;72.60;;;;;;5080993;28;20071;-70
2022/03/14 11:32:41;;;;;;;19.75;11.45;;;10.90;72.30;;;;;;5066907;28;20048;-70
2022/03/14 11:35:08;;;;;;;20.50;11.15;;;10.80;72.40;;;;;;5045005;28;20103;-70
2022/03/14 11:37:34;;;;;;;20.50;11.70;;;10.90;72.40;;;;;;5065864;28;20032;-70
2022/03/14 11:40:04;;;;;;;21.42;11.35;;;10.80;72.30;;;;;;5070405;28;20039;-70
2022/03/14 11:42:30;;;;;;;22.48;11.63;;;10.90;71.90;;;;;;5069345;28;20540;-70
2022/03/14 11:44:57;;;;;;;23.03;10.33;;;10.90;72.10;;;;;;5071420;28;20048;-70
2022/03/14 11:47:24;;;;;;;24.02;11.93;;;11.10;72.00;;;;;;5069719;28;20044;-70
2022/03/14 11:49:51;;;;;;;24.42;11.35;;;11.10;71.60;;;;;;5062472;28;20086;-70
2022/03/14 11:52:19;;;;;;;21.48;11.25;;;11.10;71.40;;;;;;5066724;28;20067;-70
2022/03/14 11:54:52;;;;;;;23.02;12.10;;;11.10;71.00;;;;;;5070445;28;20043;-70
2022/03/14 11:57:35;;;;;;;19.48;11.10;;;11.10;71.50;;;;;;5067609;28;20094;-70
2022/03/14 12:00:25;;;;;;;22.88;11.50;;;11.10;71.90;;;;;;5066305;28;20527;-70
2022/03/14 12:03:27;;;;;;;21.45;11.30;;;11.30;71.90;;;;;;5090052;28;20127;-70
2022/03/14 12:05:53;;;;;;;21.30;11.15;;;11.50;71.40;;;;;;5082990;28;20044;-71
2022/03/14 12:08:25;;;;;;;22.63;9.83;;;11.60;70.20;;;;;;5068242;28;20125;-71
2022/03/14 12:10:51;;;;;;;21.30;11.10;;;11.70;69.70;;;;;;5085227;28;20322;-71
2022/03/14 12:13:46;;;;;;;18.17;9.73;;;11.70;69.50;;;;;;5051547;28;20286;-71
2022/03/14 12:16:44;;;;;;;20.98;8.85;;;11.80;69.40;;;;;;5077925;28;20385;-71
2022/03/14 12:19:28;;;;;;;20.27;9.93;;;12.00;69.20;;;;;;5101913;28;20044;-71
2022/03/14 12:21:55;;;;;;;17.30;8.85;;;12.10;68.70;;;;;;5083916;28;20289;-71
2022/03/14 12:24:36;;;;;;;21.00;9.97;;;12.10;67.70;;;;;;5085280;28;20120;-71
2022/03/14 12:27:12;;;;;;;17.33;9.27;;;12.10;67.10;;;;;;5079727;28;20286;-71
2022/03/14 12:29:40;;;;;;;20.00;9.67;;;11.90;67.80;;;;;;5092307;28;20434;-71
2022/03/14 12:32:34;;;;;;;16.77;9.18;;;11.90;67.80;;;;;;5086448;28;20285;-71
2022/03/14 12:35:03;;;;;;;15.57;9.00;;;11.90;67.60;;;;;;5085414;28;20285;-71
2022/03/14 12:37:35;;;;;;;18.13;9.83;;;11.90;67.60;;;;;;5084693;28;20044;-71
2022/03/14 12:40:06;;;;;;;18.90;9.35;;;11.90;67.80;;;;;;5068665;28;20644;-71
2022/03/14 12:42:43;;;;;;;18.92;8.60;;;11.90;67.30;;;;;;5083736;28;20047;-71
2022/03/14 12:45:29;;;;;;;15.23;8.93;;;12.10;67.40;;;;;;5111323;27;20339;-71
2022/03/14 12:47:58;;;;;;;15.47;9.50;;;12.30;66.60;;;;;;5084328;28;20782;-71